Data for 12/25/2007

Time Sea-Level Adjusted Pressure Absolute Pressure Temperature Relative Humidity Dew Point   
(mb) (inHg) (mb) (inHg) (C) (F) (%) (C) (F)
00:05 1020 30.12 849 25.07 -5.5 22.1 72 -9.8 14.4
00:10 1020 30.12 849 25.07 -5.6 22 76 -9.1 15.6
00:15 1020 30.12 849 25.07 -5.6 21.9 74 -9.5 14.9
00:20 1020 30.12 849 25.07 -5.5 22.1 69 -10.3 13.4
00:25 1020 30.12 849 25.07 -5.2 22.7 70 -9.8 14.4
00:30 1020 30.12 849 25.07 -5 23 64 -10.7 12.7
00:35 1020 30.12 849 25.07 -4.8 23.4 65 -10.4 13.2
00:40 1020 30.12 849 25.07 -4.7 23.5 65 -10.3 13.4
00:45 1020 30.12 849 25.07 -4.8 23.4 67 -10 14
00:50 1020 30.12 849 25.07 -4.8 23.4 66 -10.3 13.5
00:55 1020 30.12 849 25.07 -4.8 23.3 67 -10.1 13.9
01:00 1020 30.12 849 25.07 -4.9 23.2 68 -10 14
01:05 1020 30.12 850 25.1 -4.8 23.3 67 -10 14
01:10 1020 30.12 850 25.1 -4.8 23.4 68 -9.9 14.3
01:15 1020 30.12 850 25.1 -4.7 23.5 66 -10.2 13.6
01:20 1021 30.15 850 25.1 -4.6 23.7 66 -10.1 13.9
01:25 1021 30.15 850 25.1 -4.7 23.6 67 -9.9 14.1
01:30 1021 30.15 850 25.1 -4.6 23.7 67 -9.9 14.1
01:35 1021 30.15 850 25.1 -4.8 23.4 66 -10.3 13.5
01:40 1021 30.15 850 25.1 -4.9 23.3 67 -10 14
01:45 1021 30.15 850 25.1 -5 23.1 68 -9.9 14.1
01:50 1021 30.15 850 25.1 -4.9 23.1 68 -9.9 14.1
01:55 1021 30.15 850 25.1 -4.9 23.2 67 -10.1 13.9
02:00 1021 30.15 850 25.1 -4.9 23.3 68 -9.9 14.1
02:05 1021 30.15 850 25.1 -4.9 23.2 68 -9.8 14.3
02:10 1021 30.15 850 25.1 -4.9 23.1 69 -9.9 14.2
02:15 1021 30.15 850 25.1 -5 23 67 -10.2 13.7
02:20 1021 30.15 851 25.13 -5 23 68 -10.1 13.9
02:25 1021 30.15 851 25.13 -4.9 23.1 67 -10.2 13.7
02:30 1021 30.15 851 25.13 -4.9 23.2 68 -10 14
02:35 1021 30.15 851 25.13 -5 23.1 68 -10 14.1
02:40 1022 30.18 851 25.13 -5 23 69 -9.8 14.4
02:45 1022 30.18 851 25.13 -5 23 69 -9.8 14.4
02:50 1022 30.18 851 25.13 -5 23 69 -9.8 14.4
02:55 1022 30.18 851 25.13 -5 23 69 -9.9 14.3
03:00 1022 30.18 851 25.13 -5.1 22.8 69 -9.9 14.2
03:05 1022 30.18 851 25.13 -5.1 22.8 69 -10 14.1
03:10 1022 30.18 851 25.13 -5.1 22.8 69 -10 14
03:15 1022 30.18 851 25.13 -5.2 22.6 69 -10.1 13.8
03:20 1022 30.18 851 25.13 -5.2 22.6 68 -10.2 13.6
03:25 1022 30.18 851 25.13 -5.2 22.6 68 -10.2 13.6
03:30 1022 30.18 851 25.13 -5.2 22.6 67 -10.4 13.3
03:35 1022 30.18 851 25.13 -5.2 22.6 67 -10.4 13.2
03:40 1022 30.18 851 25.13 -5.2 22.7 67 -10.3 13.4
03:45 1022 30.18 851 25.13 -5.3 22.5 68 -10.3 13.5
03:50 1022 30.18 851 25.13 -5.4 22.2 69 -10.3 13.5
03:55 1022 30.18 851 25.13 -5.5 22.1 68 -10.4 13.2
04:00 1022 30.18 851 25.13 -5.5 22.1 68 -10.5 13
04:05 1022 30.18 851 25.13 -5.4 22.3 67 -10.5 13.1
04:10 1022 30.18 851 25.13 -5.3 22.4 67 -10.4 13.2
04:15 1022 30.18 851 25.13 -5.3 22.4 67 -10.5 13.1
04:20 1022 30.18 851 25.13 -5.3 22.5 68 -10.4 13.4
04:25 1022 30.18 851 25.13 -5.3 22.5 67 -10.5 13.1
04:30 1022 30.18 851 25.13 -5.3 22.5 67 -10.4 13.2
04:35 1022 30.18 851 25.13 -5.3 22.4 67 -10.4 13.2
04:40 1022 30.18 851 25.13 -5.4 22.4 67 -10.5 13.1
04:45 1022 30.18 851 25.13 -5.4 22.3 68 -10.5 13.2
04:50 1022 30.18 851 25.13 -5.4 22.3 68 -10.4 13.3
04:55 1022 30.18 851 25.13 -5.4 22.2 68 -10.4 13.3
05:00 1022 30.18 851 25.13 -5.5 22.1 68 -10.5 13.1
05:05 1022 30.18 851 25.13 -5.6 22 68 -10.6 13
05:10 1022 30.18 851 25.13 -5.6 21.8 70 -10.3 13.4
05:15 1022 30.18 851 25.13 -5.6 21.9 69 -10.4 13.3
05:20 1022 30.18 851 25.13 -5.6 21.9 69 -10.4 13.3
05:25 1022 30.18 851 25.13 -5.6 21.9 72 -9.9 14.1
05:30 1022 30.18 851 25.13 -6 21.2 73 -10.2 13.7
05:35 1022 30.18 851 25.13 -6.1 21 73 -10.3 13.5
05:40 1022 30.18 851 25.13 -6 21.1 72 -10.3 13.4
05:45 1022 30.18 851 25.13 -5.8 21.5 71 -10.3 13.5
05:50 1022 30.18 851 25.13 -5.7 21.7 72 -10 13.9
05:55 1022 30.18 851 25.13 -5.8 21.6 71 -10.3 13.5
06:00 1022 30.18 851 25.13 -5.9 21.4 72 -10.1 13.8
06:05 1022 30.18 851 25.13 -5.9 21.4 72 -10.2 13.6
06:10 1022 30.18 851 25.13 -5.8 21.5 72 -10.1 13.9
06:15 1022 30.18 851 25.13 -5.8 21.6 72 -10.1 13.9
06:20 1022 30.18 851 25.13 -5.8 21.6 73 -9.8 14.4
06:25 1022 30.18 851 25.13 -5.9 21.4 74 -9.7 14.5
06:30 1022 30.18 851 25.13 -6 21.2 75 -9.7 14.5
06:35 1022 30.18 851 25.13 -6.1 21.1 75 -9.7 14.5
06:40 1022 30.18 851 25.13 -6.1 21.1 72 -10.2 13.6
06:45 1022 30.18 851 25.13 -5.9 21.4 72 -10.1 13.7
06:50 1022 30.18 851 25.13 -5.8 21.5 75 -9.6 14.7
06:55 1022 30.18 851 25.13 -5.9 21.4 75 -9.7 14.5
07:00 1022 30.18 851 25.13 -6 21.2 73 -10.1 13.8
07:05 1022 30.18 851 25.13 -5.8 21.6 67 -10.9 12.3
07:10 1022 30.18 851 25.13 -5.3 22.5 66 -10.7 12.8
07:15 1022 30.18 852 25.16 -5.1 22.9 65 -10.7 12.7
07:20 1022 30.18 852 25.16 -5 23 65 -10.6 12.9
07:25 1022 30.18 852 25.16 -5 23 68 -10 14
07:30 1022 30.18 852 25.16 -5 23 64 -10.9 12.5
07:35 1022 30.18 851 25.13 -5 23 63 -10.9 12.3
07:40 1022 30.18 851 25.13 -5.1 22.9 64 -10.9 12.4
07:45 1022 30.18 851 25.13 -5 22.9 64 -10.8 12.5
07:50 1022 30.18 851 25.13 -5.1 22.9 64 -10.8 12.6
07:55 1022 30.18 851 25.13 -5 22.9 65 -10.7 12.7
08:00 1022 30.18 851 25.13 -5 22.9 66 -10.5 13
08:05 1022 30.18 851 25.13 -5.2 22.7 65 -10.7 12.8
08:10 1022 30.18 851 25.13 -5.2 22.7 67 -10.5 13.2
08:15 1022 30.18 851 25.13 -5.2 22.7 66 -10.6 13
08:20 1022 30.18 851 25.13 -5.2 22.7 67 -10.4 13.2
08:25 1022 30.18 851 25.13 -5.1 22.8 66 -10.4 13.2
08:30 1022 30.18 852 25.16 -5 23 64 -10.7 12.7
08:35 1022 30.18 851 25.13 -5 23.1 66 -10.4 13.3
08:40 1022 30.18 851 25.13 -4.9 23.2 63 -10.9 12.5
08:45 1022 30.18 851 25.13 -5 23 64 -10.8 12.5
08:50 1022 30.18 851 25.13 -5.1 22.8 63 -11 12.2
08:55 1022 30.18 851 25.13 -5.1 22.9 65 -10.7 12.7
09:00 1022 30.18 851 25.13 -5.1 22.9 65 -10.6 12.9
09:05 1022 30.18 851 25.13 -5 23.1 64 -10.8 12.5
09:10 1022 30.18 851 25.13 -4.8 23.3 63 -10.8 12.5
09:15 1022 30.18 851 25.13 -4.7 23.5 63 -10.7 12.7
09:20 1022 30.18 851 25.13 -4.7 23.5 63 -10.6 12.8
09:25 1022 30.18 851 25.13 -4.7 23.5 62 -10.9 12.4
09:30 1022 30.18 851 25.13 -4.5 23.9 61 -10.9 12.3
09:35 1022 30.18 852 25.16 -4.4 24.1 62 -10.6 12.9
09:40 1022 30.18 852 25.16 -4.2 24.4 62 -10.6 13
09:45 1022 30.18 852 25.16 -4.3 24.3 62 -10.6 12.9
09:50 1022 30.18 852 25.16 -4.3 24.3 60 -10.8 12.5
09:55 1022 30.18 852 25.16 -4.2 24.4 61 -10.7 12.8
10:00 1022 30.18 852 25.16 -3.9 24.9 61 -10.4 13.4
10:05 1022 30.18 852 25.16 -3.8 25.1 60 -10.4 13.2
10:10 1022 30.18 852 25.16 -3.9 24.9 62 -10.1 13.8
10:15 1022 30.18 852 25.16 -3.8 25.2 60 -10.4 13.3
10:20 1022 30.18 852 25.16 -3.6 25.4 61 -10 13.9
10:25 1022 30.18 852 25.16 -3.4 25.9 66 -8.8 16.2
10:30 1023 30.21 852 25.16 -3.4 25.8 67 -8.8 16.2
10:35 1023 30.21 852 25.16 -3 26.6 65 -8.6 16.4
10:40 1023 30.21 852 25.16 -2.7 27.1 62 -8.9 15.9
10:45 1023 30.21 852 25.16 -2.7 27.1 58 -9.9 14.2
10:50 1023 30.21 852 25.16 -2.7 27.1 55 -10.5 13.1
10:55 1023 30.21 852 25.16 -2.7 27.1 58 -9.9 14.2
11:00 1023 30.21 852 25.16 -2.7 27.1 57 -10 13.9
11:05 1023 30.21 852 25.16 -2.6 27.2 59 -9.7 14.6
11:10 1022 30.18 852 25.16 -2.5 27.5 55 -10.5 13.2
11:15 1022 30.18 852 25.16 -2.5 27.5 56 -10.1 13.8
11:20 1022 30.18 851 25.13 -2.5 27.6 54 -10.6 12.9
11:25 1022 30.18 851 25.13 -2.6 27.3 56 -10.1 13.8
11:30 1022 30.18 851 25.13 -2.3 27.8 55 -10.3 13.5
11:35 1022 30.18 851 25.13 -2.3 27.8 56 -10 13.9
11:40 1022 30.18 851 25.13 -2.3 27.9 55 -10.2 13.7
11:45 1022 30.18 851 25.13 -2.2 28 56 -9.9 14.2
11:50 1022 30.18 851 25.13 -2.1 28.2 56 -9.7 14.6
11:55 1022 30.18 851 25.13 -2.4 27.8 58 -9.6 14.7
12:00 1022 30.18 851 25.13 -2.1 28.3 57 -9.5 14.9
12:05 1022 30.18 851 25.13 -1.9 28.5 56 -9.6 14.7
12:10 1022 30.18 851 25.13 -1.9 28.6 56 -9.4 15
12:15 1022 30.18 851 25.13 -2.1 28.3 58 -9.3 15.2
12:20 1022 30.18 851 25.13 -1.9 28.7 54 -10 14
12:25 1022 30.18 851 25.13 -2 28.4 54 -10.1 13.8
12:30 1022 30.18 851 25.13 -1.9 28.5 54 -10 14.1
12:35 1022 30.18 851 25.13 -1.8 28.8 54 -9.9 14.1
12:40 1021 30.15 851 25.13 -1.9 28.5 55 -9.9 14.2
12:45 1021 30.15 851 25.13 -1.8 28.7 56 -9.5 15
12:50 1021 30.15 850 25.1 -1.8 28.8 55 -9.6 14.7
12:55 1021 30.15 850 25.1 -1.7 29 54 -9.8 14.4
13:00 1021 30.15 850 25.1 -1.8 28.8 53 -10.3 13.5
13:05 1021 30.15 850 25.1 -1.8 28.8 55 -9.8 14.4
13:10 1021 30.15 850 25.1 -1.6 29.2 53 -9.9 14.2
13:15 1021 30.15 850 25.1 -1.7 29 54 -9.7 14.5
13:20 1021 30.15 850 25.1 -1.6 29 54 -9.7 14.6
13:25 1021 30.15 850 25.1 -1.7 28.9 54 -9.7 14.5
13:30 1021 30.15 850 25.1 -1.9 28.6 56 -9.7 14.6
13:35 1021 30.15 850 25.1 -2 28.4 57 -9.5 15
13:40 1021 30.15 850 25.1 -2 28.3 57 -9.4 15.1
13:45 1021 30.15 850 25.1 -1.9 28.5 56 -9.5 15
13:50 1020 30.12 850 25.1 -2 28.4 56 -9.6 14.8
13:55 1020 30.12 850 25.1 -2.1 28.2 56 -9.7 14.6
14:00 1020 30.12 850 25.1 -2.5 27.5 58 -9.7 14.5
14:05 1020 30.12 849 25.07 -2.4 27.7 59 -9.4 15
14:10 1020 30.12 849 25.07 -2.2 28 58 -9.4 15.1
14:15 1020 30.12 849 25.07 -2.4 27.7 58 -9.6 14.6
14:20 1020 30.12 849 25.07 -2.5 27.4 58 -9.7 14.5
14:25 1020 30.12 849 25.07 -2.5 27.5 58 -9.7 14.6
14:30 1020 30.12 849 25.07 -2.5 27.5 60 -9.3 15.2
14:35 1020 30.12 849 25.07 -2.6 27.3 59 -9.5 15
14:40 1020 30.12 849 25.07 -2.7 27.2 59 -9.6 14.8
14:45 1020 30.12 849 25.07 -2.6 27.4 60 -9.3 15.2
14:50 1020 30.12 849 25.07 -2.8 27 61 -9.2 15.4
14:55 1020 30.12 849 25.07 -2.8 26.9 62 -9.2 15.5
15:00 1020 30.12 849 25.07 -2.9 26.8 62 -9.3 15.3
15:05 1020 30.12 849 25.07 -3.2 26.2 61 -9.8 14.4
15:10 1020 30.12 849 25.07 -2.9 26.8 59 -9.9 14.2
15:15 1020 30.12 849 25.07 -2.6 27.4 55 -10.3 13.4
15:20 1020 30.12 849 25.07 -1.8 28.8 50 -10.8 12.5
15:25 1020 30.12 849 25.07 -1 30.2 49 -10.5 13.1
15:30 1020 30.12 849 25.07 -1.5 29.3 51 -10.5 13.2
15:35 1020 30.12 849 25.07 -1.6 29.2 50 -10.6 12.9
15:40 1019 30.09 849 25.07 -1.2 29.8 50 -10.3 13.4
15:45 1019 30.09 849 25.07 -1.4 29.4 51 -10.2 13.6
15:50 1019 30.09 848 25.04 -2.1 28.2 53 -10.5 13.1
15:55 1019 30.09 848 25.04 -2.6 27.3 54 -10.8 12.6
16:00 1019 30.09 848 25.04 -3.1 26.5 51 -11.9 10.6
16:05 1019 30.09 848 25.04 -3.3 26.1 53 -11.5 11.2
16:10 1019 30.09 848 25.04 -3.5 25.7 54 -11.6 11.2
16:15 1019 30.09 848 25.04 -3.8 25.1 56 -11.5 11.4
16:20 1019 30.09 848 25.04 -4 24.8 54 -12 10.4
16:25 1019 30.09 848 25.04 -4.5 24 55 -12.3 9.9
16:30 1019 30.09 848 25.04 -4.6 23.7 56 -12.2 10.1
16:35 1019 30.09 848 25.04 -4.8 23.4 55 -12.4 9.7
16:40 1019 30.09 848 25.04 -4.9 23.2 55 -12.7 9.1
16:45 1019 30.09 848 25.04 -5.1 22.9 55 -12.7 9.1
16:50 1019 30.09 848 25.04 -5.2 22.6 56 -12.7 9.1
16:55 1018 30.06 848 25.04 -5.5 22.2 58 -12.5 9.6
17:00 1018 30.06 848 25.04 -5.5 22 57 -12.8 9
17:05 1018 30.06 848 25.04 -5.7 21.8 57 -13 8.6
17:10 1018 30.06 847 25.01 -5.6 21.9 56 -13.1 8.5
17:15 1018 30.06 847 25.01 -5.7 21.8 57 -12.8 8.9
17:20 1018 30.06 847 25.01 -5.8 21.6 57 -13.1 8.4
17:25 1018 30.06 847 25.01 -5.7 21.8 57 -12.8 9
17:30 1018 30.06 847 25.01 -5.6 21.9 57 -12.7 9.1
17:35 1018 30.06 847 25.01 -5.8 21.5 64 -11.7 11
17:40 1018 30.06 847 25.01 -6.7 19.9 65 -12.2 10.1
17:45 1018 30.06 847 25.01 -6.9 19.5 65 -12.4 9.7
17:50 1018 30.06 847 25.01 -7.2 19.1 68 -12.1 10.2
17:55 1018 30.06 847 25.01 -7.7 18.1 70 -12.3 9.8
18:00 1018 30.06 847 25.01 -8.1 17.5 70 -12.7 9.1
18:05 1017 30.03 847 25.01 -8 17.6 68 -12.9 8.9
18:10 1017 30.03 847 25.01 -8.2 17.2 69 -12.9 8.8
18:15 1017 30.03 846 24.98 -8.2 17.3 68 -13 8.6
18:20 1017 30.03 846 24.98 -7.8 18 69 -12.5 9.5
18:25 1017 30.03 846 24.98 -8.1 17.5 70 -12.6 9.4
18:30 1017 30.03 846 24.98 -7.4 18.6 70 -12 10.4
18:35 1017 30.03 846 24.98 -7.5 18.4 73 -11.6 11.1
18:40 1017 30.03 846 24.98 -7.9 17.7 75 -11.6 11
18:45 1017 30.03 846 24.98 -8.2 17.3 75 -11.8 10.8
18:50 1017 30.03 846 24.98 -8.4 16.9 76 -11.9 10.5
18:55 1017 30.03 846 24.98 -8.7 16.3 77 -12 10.5
19:00 1017 30.03 846 24.98 -8.9 16 77 -12.3 9.9
19:05 1017 30.03 846 24.98 -8.7 16.4 74 -12.5 9.5
19:10 1017 30.03 846 24.98 -8.4 16.8 73 -12.4 9.7
19:15 1017 30.03 846 24.98 -8.3 17.1 73 -12.4 9.7
19:20 1017 30.03 846 24.98 -8.3 17.1 72 -12.4 9.7
19:25 1017 30.03 846 24.98 -8.3 17 73 -12.4 9.7
19:30 1017 30.03 846 24.98 -8.3 17 73 -12.4 9.7
19:35 1016 30 846 24.98 -8.4 16.8 75 -12.2 10.1
19:40 1016 30 846 24.98 -8.4 17 74 -12.2 10.1
19:45 1016 30 845 24.95 -8.2 17.2 74 -12 10.4
19:50 1016 30 845 24.95 -8.3 17 76 -11.9 10.6
19:55 1016 30 845 24.95 -8.5 16.7 76 -12 10.5
20:00 1016 30 845 24.95 -8.6 16.6 77 -11.9 10.5
20:05 1016 30 845 24.95 -8.6 16.6 77 -11.9 10.6
20:10 1016 30 845 24.95 -8.6 16.6 78 -11.8 10.7
20:15 1016 30 845 24.95 -8.5 16.6 77 -11.8 10.7
20:20 1015 29.97 845 24.95 -8.5 16.8 77 -11.8 10.8
20:25 1015 29.97 845 24.95 -8.3 17 76 -11.8 10.7
20:30 1015 29.97 844 24.92 -8.2 17.2 76 -11.7 10.9
20:35 1015 29.97 844 24.92 -8.2 17.2 76 -11.8 10.8
20:40 1015 29.97 844 24.92 -8.1 17.5 75 -11.8 10.8
20:45 1015 29.97 844 24.92 -7.9 17.7 74 -11.8 10.8
20:50 1015 29.97 844 24.92 -7.9 17.8 73 -11.9 10.5
20:55 1015 29.97 844 24.92 -7.8 18 72 -12 10.4
21:00 1015 29.97 844 24.92 -7.7 18.2 71 -12.1 10.3
21:05 1014 29.94 844 24.92 -7.6 18.3 70 -12.2 10
21:10 1014 29.94 844 24.92 -7.6 18.4 70 -12.2 10.1
21:15 1014 29.94 844 24.92 -7.6 18.4 71 -12 10.3
21:20 1014 29.94 843 24.89 -7.7 18.2 70 -12.2 10.1
21:25 1014 29.94 843 24.89 -7.6 18.3 70 -12.2 10.1
21:30 1014 29.94 843 24.89 -7.5 18.4 69 -12.2 10
21:35 1014 29.94 843 24.89 -7.5 18.5 68 -12.4 9.8
21:40 1014 29.94 843 24.89 -7.4 18.7 67 -12.5 9.5
21:45 1014 29.94 843 24.89 -7.4 18.7 67 -12.4 9.7
21:50 1014 29.94 843 24.89 -7.4 18.6 67 -12.5 9.5
21:55 1014 29.94 843 24.89 -7.4 18.6 68 -12.4 9.6
22:00 1014 29.94 843 24.89 -7.4 18.6 67 -12.5 9.5
22:05 1014 29.94 843 24.89 -7.5 18.6 66 -12.7 9.1
22:10 1014 29.94 843 24.89 -7.4 18.7 67 -12.6 9.4
22:15 1014 29.94 843 24.89 -7.5 18.6 68 -12.5 9.5
22:20 1014 29.94 843 24.89 -7.6 18.4 68 -12.5 9.5
22:25 1014 29.94 843 24.89 -7.7 18.2 68 -12.6 9.4
22:30 1014 29.94 843 24.89 -7.7 18.1 68 -12.7 9.2
22:35 1014 29.94 843 24.89 -7.7 18.1 67 -12.8 9
22:40 1014 29.94 843 24.89 -7.8 18 68 -12.6 9.2
22:45 1013 29.91 843 24.89 -8 17.6 68 -12.8 8.9
22:50 1013 29.91 843 24.89 -8.1 17.5 69 -12.9 8.8
22:55 1013 29.91 843 24.89 -8.1 17.5 69 -12.8 8.9
23:00 1013 29.91 843 24.89 -8.1 17.3 70 -12.7 9.1
23:05 1013 29.91 843 24.89 -8.2 17.2 70 -12.8 9
23:10 1013 29.91 843 24.89 -8.2 17.3 70 -12.8 9
23:15 1013 29.91 843 24.89 -8.3 17.2 71 -12.7 9.1
23:20 1014 29.94 843 24.89 -8.6 16.6 71 -12.9 8.8
23:25 1014 29.94 843 24.89 -8.9 16.1 71 -13.1 8.3
23:30 1013 29.91 843 24.89 -8.9 16 71 -13.1 8.3
23:35 1013 29.91 843 24.89 -8.9 16 71 -13.3 8.1
23:40 1013 29.91 843 24.89 -8.7 16.3 70 -13.3 8
23:45 1013 29.91 842 24.86 -8.7 16.4 70 -13.2 8.3
23:50 1013 29.91 842 24.86 -8.8 16.2 70 -13.3 8
23:55 1013 29.91 842 24.86 -8.8 16.1 70 -13.4 7.9
24:00 1013 29.91 842 24.86 -9 15.9 70 -13.5 7.8